sensor_id;sensor_type;location;lat;lon;timestamp;temperature;humidity
24904;DHT22;12960;50.322;11.124;2022-08-21T00:00:38;15.80;99.90
24904;DHT22;12960;50.322;11.124;2022-08-21T00:01:40;15.80;99.90
24904;DHT22;12960;50.322;11.124;2022-08-21T00:02:52;15.70;99.90
24904;DHT22;12960;50.322;11.124;2022-08-21T00:03:57;15.80;99.90
24904;DHT22;12960;50.322;11.124;2022-08-21T00:05:01;15.70;99.90
24904;DHT22;12960;50.322;11.124;2022-08-21T00:06:02;15.80;99.90
24904;DHT22;12960;50.322;11.124;2022-08-21T00:07:03;15.70;99.90
24904;DHT22;12960;50.322;11.124;2022-08-21T00:08:05;15.70;99.90
24904;DHT22;12960;50.322;11.124;2022-08-21T00:09:07;15.70;99.90
24904;DHT22;12960;50.322;11.124;2022-08-21T00:10:09;15.70;99.90
24904;DHT22;12960;50.322;11.124;2022-08-21T00:11:10;15.70;99.90
24904;DHT22;12960;50.322;11.124;2022-08-21T00:12:12;15.70;99.90
24904;DHT22;12960;50.322;11.124;2022-08-21T00:13:13;15.80;99.90
24904;DHT22;12960;50.322;11.124;2022-08-21T00:14:17;15.80;99.90
24904;DHT22;12960;50.322;11.124;2022-08-21T00:15:29;15.80;99.90
24904;DHT22;12960;50.322;11.124;2022-08-21T00:16:31;15.80;99.90
24904;DHT22;12960;50.322;11.124;2022-08-21T00:17:32;15.80;99.90
24904;DHT22;12960;50.322;11.124;2022-08-21T00:18:33;15.80;99.90
24904;DHT22;12960;50.322;11.124;2022-08-21T00:19:34;15.80;99.90
24904;DHT22;12960;50.322;11.124;2022-08-21T00:20:36;15.80;99.90
24904;DHT22;12960;50.322;11.124;2022-08-21T00:21:38;15.70;99.90
24904;DHT22;12960;50.322;11.124;2022-08-21T00:22:39;15.70;99.90
24904;DHT22;12960;50.322;11.124;2022-08-21T00:23:40;15.70;99.90
24904;DHT22;12960;50.322;11.124;2022-08-21T00:24:45;15.60;99.90
24904;DHT22;12960;50.322;11.124;2022-08-21T00:25:46;15.60;99.90
24904;DHT22;12960;50.322;11.124;2022-08-21T00:26:48;15.70;99.90
24904;DHT22;12960;50.322;11.124;2022-08-21T00:27:49;15.70;99.90
24904;DHT22;12960;50.322;11.124;2022-08-21T00:28:50;15.70;99.90
24904;DHT22;12960;50.322;11.124;2022-08-21T00:29:51;15.90;99.90
24904;DHT22;12960;50.322;11.124;2022-08-21T00:30:53;15.90;99.90
24904;DHT22;12960;50.322;11.124;2022-08-21T00:31:55;15.80;99.90
24904;DHT22;12960;50.322;11.124;2022-08-21T00:32:59;16.00;99.90
24904;DHT22;12960;50.322;11.124;2022-08-21T00:34:06;16.00;99.90
24904;DHT22;12960;50.322;11.124;2022-08-21T00:35:14;16.00;99.90
24904;DHT22;12960;50.322;11.124;2022-08-21T00:36:16;16.00;99.90
24904;DHT22;12960;50.322;11.124;2022-08-21T00:37:17;15.90;99.90
24904;DHT22;12960;50.322;11.124;2022-08-21T00:38:18;15.90;99.90
24904;DHT22;12960;50.322;11.124;2022-08-21T00:39:20;15.90;99.90
24904;DHT22;12960;50.322;11.124;2022-08-21T00:40:28;16.00;99.90
24904;DHT22;12960;50.322;11.124;2022-08-21T00:41:36;15.90;99.90
24904;DHT22;12960;50.322;11.124;2022-08-21T00:42:40;15.90;99.90
24904;DHT22;12960;50.322;11.124;2022-08-21T00:43:41;15.80;99.90
24904;DHT22;12960;50.322;11.124;2022-08-21T00:44:44;15.80;99.90
24904;DHT22;12960;50.322;11.124;2022-08-21T00:45:46;15.80;99.90
24904;DHT22;12960;50.322;11.124;2022-08-21T00:46:47;15.90;99.90
24904;DHT22;12960;50.322;11.124;2022-08-21T00:47:51;15.90;99.90
24904;DHT22;12960;50.322;11.124;2022-08-21T00:48:52;15.90;99.90
24904;DHT22;12960;50.322;11.124;2022-08-21T00:49:53;15.90;99.90
24904;DHT22;12960;50.322;11.124;2022-08-21T00:51:13;15.90;99.90
24904;DHT22;12960;50.322;11.124;2022-08-21T00:52:19;15.90;99.90
24904;DHT22;12960;50.322;11.124;2022-08-21T00:53:21;15.90;99.90
24904;DHT22;12960;50.322;11.124;2022-08-21T00:54:25;15.90;99.90
24904;DHT22;12960;50.322;11.124;2022-08-21T00:55:28;16.00;99.90
24904;DHT22;12960;50.322;11.124;2022-08-21T00:56:30;16.00;99.90
24904;DHT22;12960;50.322;11.124;2022-08-21T00:57:40;15.90;99.90
24904;DHT22;12960;50.322;11.124;2022-08-21T00:58:42;15.80;99.90
24904;DHT22;12960;50.322;11.124;2022-08-21T00:59:46;15.80;99.90
24904;DHT22;12960;50.322;11.124;2022-08-21T01:00:49;15.80;99.90
24904;DHT22;12960;50.322;11.124;2022-08-21T01:01:51;15.80;99.90
24904;DHT22;12960;50.322;11.124;2022-08-21T01:02:57;15.80;99.90
24904;DHT22;12960;50.322;11.124;2022-08-21T01:03:59;15.80;99.90
24904;DHT22;12960;50.322;11.124;2022-08-21T01:05:00;15.70;99.90
24904;DHT22;12960;50.322;11.124;2022-08-21T01:06:02;15.80;99.90
24904;DHT22;12960;50.322;11.124;2022-08-21T01:07:05;15.70;99.90
24904;DHT22;12960;50.322;11.124;2022-08-21T01:08:06;15.70;99.90
24904;DHT22;12960;50.322;11.124;2022-08-21T01:09:08;15.70;99.90
24904;DHT22;12960;50.322;11.124;2022-08-21T01:10:13;15.70;99.90
24904;DHT22;12960;50.322;11.124;2022-08-21T01:11:15;15.60;99.90
24904;DHT22;12960;50.322;11.124;2022-08-21T01:12:18;15.60;99.90
24904;DHT22;12960;50.322;11.124;2022-08-21T01:13:19;15.50;99.90
24904;DHT22;12960;50.322;11.124;2022-08-21T01:14:23;15.40;99.90
24904;DHT22;12960;50.322;11.124;2022-08-21T01:15:30;15.40;99.90
24904;DHT22;12960;50.322;11.124;2022-08-21T01:16:32;15.40;99.90
24904;DHT22;12960;50.322;11.124;2022-08-21T01:17:34;15.40;99.90
24904;DHT22;12960;50.322;11.124;2022-08-21T01:18:35;15.40;99.90
24904;DHT22;12960;50.322;11.124;2022-08-21T01:19:36;15.40;99.90
24904;DHT22;12960;50.322;11.124;2022-08-21T01:21:51;15.40;99.90
24904;DHT22;12960;50.322;11.124;2022-08-21T01:22:52;15.20;99.90
24904;DHT22;12960;50.322;11.124;2022-08-21T01:23:54;15.10;99.90
24904;DHT22;12960;50.322;11.124;2022-08-21T01:24:55;15.00;99.90
24904;DHT22;12960;50.322;11.124;2022-08-21T01:25:56;15.00;99.90
24904;DHT22;12960;50.322;11.124;2022-08-21T01:26:58;14.90;99.90
24904;DHT22;12960;50.322;11.124;2022-08-21T01:28:06;14.90;99.90
24904;DHT22;12960;50.322;11.124;2022-08-21T01:29:12;14.90;99.90
24904;DHT22;12960;50.322;11.124;2022-08-21T01:30:26;14.90;99.90
24904;DHT22;12960;50.322;11.124;2022-08-21T01:31:28;14.90;99.90
24904;DHT22;12960;50.322;11.124;2022-08-21T01:32:32;14.80;99.90
24904;DHT22;12960;50.322;11.124;2022-08-21T01:33:33;14.80;99.90
24904;DHT22;12960;50.322;11.124;2022-08-21T01:34:37;14.80;99.90
24904;DHT22;12960;50.322;11.124;2022-08-21T01:35:42;14.80;99.90
24904;DHT22;12960;50.322;11.124;2022-08-21T01:36:45;14.80;99.90
24904;DHT22;12960;50.322;11.124;2022-08-21T01:37:48;14.80;99.90
24904;DHT22;12960;50.322;11.124;2022-08-21T01:38:49;14.80;99.90
24904;DHT22;12960;50.322;11.124;2022-08-21T01:39:50;14.90;99.90
24904;DHT22;12960;50.322;11.124;2022-08-21T01:40:52;14.90;99.90
24904;DHT22;12960;50.322;11.124;2022-08-21T01:41:53;14.80;99.90
24904;DHT22;12960;50.322;11.124;2022-08-21T01:42:59;14.80;99.90
24904;DHT22;12960;50.322;11.124;2022-08-21T01:44:00;14.70;99.90
24904;DHT22;12960;50.322;11.124;2022-08-21T01:45:02;14.70;99.90
24904;DHT22;12960;50.322;11.124;2022-08-21T01:46:07;14.70;99.90
24904;DHT22;12960;50.322;11.124;2022-08-21T01:47:10;14.70;99.90
24904;DHT22;12960;50.322;11.124;2022-08-21T01:48:13;14.80;99.90
24904;DHT22;12960;50.322;11.124;2022-08-21T01:49:19;14.80;99.90
24904;DHT22;12960;50.322;11.124;2022-08-21T01:50:21;14.90;99.90
24904;DHT22;12960;50.322;11.124;2022-08-21T01:51:25;14.90;99.90
24904;DHT22;12960;50.322;11.124;2022-08-21T01:52:26;15.00;99.90
24904;DHT22;12960;50.322;11.124;2022-08-21T01:53:30;14.90;99.90
24904;DHT22;12960;50.322;11.124;2022-08-21T01:54:31;15.00;99.90
24904;DHT22;12960;50.322;11.124;2022-08-21T01:55:32;15.10;99.90
24904;DHT22;12960;50.322;11.124;2022-08-21T01:56:42;15.20;99.90
24904;DHT22;12960;50.322;11.124;2022-08-21T01:57:44;15.20;99.90
24904;DHT22;12960;50.322;11.124;2022-08-21T01:58:47;15.30;99.90
24904;DHT22;12960;50.322;11.124;2022-08-21T01:59:51;15.20;99.90
24904;DHT22;12960;50.322;11.124;2022-08-21T02:00:52;15.30;99.90
24904;DHT22;12960;50.322;11.124;2022-08-21T02:01:53;15.30;99.90
24904;DHT22;12960;50.322;11.124;2022-08-21T02:02:57;15.40;99.90
24904;DHT22;12960;50.322;11.124;2022-08-21T02:03:58;15.30;99.90
24904;DHT22;12960;50.322;11.124;2022-08-21T02:05:04;15.30;99.90
24904;DHT22;12960;50.322;11.124;2022-08-21T02:06:07;15.30;99.90
24904;DHT22;12960;50.322;11.124;2022-08-21T02:07:08;15.20;99.90
24904;DHT22;12960;50.322;11.124;2022-08-21T02:08:09;15.20;99.90
24904;DHT22;12960;50.322;11.124;2022-08-21T02:09:10;15.10;99.90
24904;DHT22;12960;50.322;11.124;2022-08-21T02:10:15;15.00;99.90
24904;DHT22;12960;50.322;11.124;2022-08-21T02:11:19;15.00;99.90
24904;DHT22;12960;50.322;11.124;2022-08-21T02:12:21;15.10;99.90
24904;DHT22;12960;50.322;11.124;2022-08-21T02:13:22;15.00;99.90
24904;DHT22;12960;50.322;11.124;2022-08-21T02:14:23;15.00;99.90
24904;DHT22;12960;50.322;11.124;2022-08-21T02:15:24;14.90;99.90
24904;DHT22;12960;50.322;11.124;2022-08-21T02:16:25;15.00;99.90
24904;DHT22;12960;50.322;11.124;2022-08-21T02:17:26;14.90;99.90
24904;DHT22;12960;50.322;11.124;2022-08-21T02:18:27;14.90;99.90
24904;DHT22;12960;50.322;11.124;2022-08-21T02:19:28;14.90;99.90
24904;DHT22;12960;50.322;11.124;2022-08-21T02:20:37;14.90;99.90
24904;DHT22;12960;50.322;11.124;2022-08-21T02:21:39;14.80;99.90
24904;DHT22;12960;50.322;11.124;2022-08-21T02:22:40;14.80;99.90
24904;DHT22;12960;50.322;11.124;2022-08-21T02:23:44;14.80;99.90
24904;DHT22;12960;50.322;11.124;2022-08-21T02:24:45;14.90;99.90
24904;DHT22;12960;50.322;11.124;2022-08-21T02:25:46;14.80;99.90
24904;DHT22;12960;50.322;11.124;2022-08-21T02:26:47;14.90;99.90
24904;DHT22;12960;50.322;11.124;2022-08-21T02:27:49;14.90;99.90
24904;DHT22;12960;50.322;11.124;2022-08-21T02:28:51;14.90;99.90
24904;DHT22;12960;50.322;11.124;2022-08-21T02:29:55;14.90;99.90
24904;DHT22;12960;50.322;11.124;2022-08-21T02:30:57;15.00;99.90
24904;DHT22;12960;50.322;11.124;2022-08-21T02:31:58;15.00;99.90
24904;DHT22;12960;50.322;11.124;2022-08-21T02:32:59;15.00;99.90
24904;DHT22;12960;50.322;11.124;2022-08-21T02:34:00;15.00;99.90
24904;DHT22;12960;50.322;11.124;2022-08-21T02:35:01;15.00;99.90
24904;DHT22;12960;50.322;11.124;2022-08-21T02:36:04;15.10;99.90
24904;DHT22;12960;50.322;11.124;2022-08-21T02:37:05;15.10;99.90
24904;DHT22;12960;50.322;11.124;2022-08-21T02:38:09;15.10;99.90
24904;DHT22;12960;50.322;11.124;2022-08-21T02:39:16;15.20;99.90
24904;DHT22;12960;50.322;11.124;2022-08-21T02:40:19;15.20;99.90
24904;DHT22;12960;50.322;11.124;2022-08-21T02:41:21;15.20;99.90
24904;DHT22;12960;50.322;11.124;2022-08-21T02:42:22;15.20;99.90
24904;DHT22;12960;50.322;11.124;2022-08-21T02:43:25;15.10;99.90
24904;DHT22;12960;50.322;11.124;2022-08-21T02:44:26;15.10;99.90
24904;DHT22;12960;50.322;11.124;2022-08-21T02:45:30;15.00;99.90
24904;DHT22;12960;50.322;11.124;2022-08-21T02:46:32;15.00;99.90
24904;DHT22;12960;50.322;11.124;2022-08-21T02:47:33;15.00;99.90
24904;DHT22;12960;50.322;11.124;2022-08-21T02:48:34;15.00;99.90
24904;DHT22;12960;50.322;11.124;2022-08-21T02:49:35;15.00;99.90
24904;DHT22;12960;50.322;11.124;2022-08-21T02:50:51;14.90;99.90
24904;DHT22;12960;50.322;11.124;2022-08-21T02:51:52;14.90;99.90
24904;DHT22;12960;50.322;11.124;2022-08-21T02:52:53;15.00;99.90
24904;DHT22;12960;50.322;11.124;2022-08-21T02:53:55;15.00;99.90
24904;DHT22;12960;50.322;11.124;2022-08-21T02:54:56;15.00;99.90
24904;DHT22;12960;50.322;11.124;2022-08-21T02:55:58;15.00;99.90
24904;DHT22;12960;50.322;11.124;2022-08-21T02:57:00;15.00;99.90
24904;DHT22;12960;50.322;11.124;2022-08-21T02:58:07;15.00;99.90
24904;DHT22;12960;50.322;11.124;2022-08-21T02:59:08;15.00;99.90
24904;DHT22;12960;50.322;11.124;2022-08-21T03:00:10;15.00;99.90
24904;DHT22;12960;50.322;11.124;2022-08-21T03:01:13;15.00;99.90
24904;DHT22;12960;50.322;11.124;2022-08-21T03:02:14;15.10;99.90
24904;DHT22;12960;50.322;11.124;2022-08-21T03:03:15;15.00;99.90
24904;DHT22;12960;50.322;11.124;2022-08-21T03:04:19;15.10;99.90
24904;DHT22;12960;50.322;11.124;2022-08-21T03:05:20;15.20;99.90
24904;DHT22;12960;50.322;11.124;2022-08-21T03:06:22;15.10;99.90
24904;DHT22;12960;50.322;11.124;2022-08-21T03:07:23;15.20;99.90
24904;DHT22;12960;50.322;11.124;2022-08-21T03:08:24;15.20;99.90
24904;DHT22;12960;50.322;11.124;2022-08-21T03:09:26;15.00;99.90
24904;DHT22;12960;50.322;11.124;2022-08-21T03:10:27;15.00;99.90
24904;DHT22;12960;50.322;11.124;2022-08-21T03:11:30;14.90;99.90
24904;DHT22;12960;50.322;11.124;2022-08-21T03:12:32;15.00;99.90
24904;DHT22;12960;50.322;11.124;2022-08-21T03:13:33;15.00;99.90
24904;DHT22;12960;50.322;11.124;2022-08-21T03:14:34;15.00;99.90
24904;DHT22;12960;50.322;11.124;2022-08-21T03:15:36;15.00;99.90
24904;DHT22;12960;50.322;11.124;2022-08-21T03:16:37;14.90;99.90
24904;DHT22;12960;50.322;11.124;2022-08-21T03:17:38;14.90;99.90
24904;DHT22;12960;50.322;11.124;2022-08-21T03:18:39;14.90;99.90
24904;DHT22;12960;50.322;11.124;2022-08-21T03:19:40;14.90;99.90
24904;DHT22;12960;50.322;11.124;2022-08-21T03:20:43;14.90;99.90
24904;DHT22;12960;50.322;11.124;2022-08-21T03:21:49;15.00;99.90
24904;DHT22;12960;50.322;11.124;2022-08-21T03:22:51;14.90;99.90
24904;DHT22;12960;50.322;11.124;2022-08-21T03:23:52;14.80;99.90
24904;DHT22;12960;50.322;11.124;2022-08-21T03:24:54;14.80;99.90
24904;DHT22;12960;50.322;11.124;2022-08-21T03:25:56;14.80;99.90
24904;DHT22;12960;50.322;11.124;2022-08-21T03:27:00;14.80;99.90
24904;DHT22;12960;50.322;11.124;2022-08-21T03:28:02;14.80;99.90
24904;DHT22;12960;50.322;11.124;2022-08-21T03:29:03;14.80;99.90
24904;DHT22;12960;50.322;11.124;2022-08-21T03:30:07;14.80;99.90
24904;DHT22;12960;50.322;11.124;2022-08-21T03:31:08;14.80;99.90
24904;DHT22;12960;50.322;11.124;2022-08-21T03:32:09;14.80;99.90
24904;DHT22;12960;50.322;11.124;2022-08-21T03:33:11;14.80;99.90
24904;DHT22;12960;50.322;11.124;2022-08-21T03:34:14;14.90;99.90
24904;DHT22;12960;50.322;11.124;2022-08-21T03:35:22;14.80;99.90
24904;DHT22;12960;50.322;11.124;2022-08-21T03:36:26;14.80;99.90
24904;DHT22;12960;50.322;11.124;2022-08-21T03:37:27;14.80;99.90
24904;DHT22;12960;50.322;11.124;2022-08-21T03:38:30;14.80;99.90
24904;DHT22;12960;50.322;11.124;2022-08-21T03:39:32;14.80;99.90
24904;DHT22;12960;50.322;11.124;2022-08-21T03:40:33;14.80;99.90
24904;DHT22;12960;50.322;11.124;2022-08-21T03:41:34;14.80;99.90
24904;DHT22;12960;50.322;11.124;2022-08-21T03:42:35;14.80;99.90
24904;DHT22;12960;50.322;11.124;2022-08-21T03:43:36;14.80;99.90
24904;DHT22;12960;50.322;11.124;2022-08-21T03:44:39;14.80;99.90
24904;DHT22;12960;50.322;11.124;2022-08-21T03:45:40;14.90;99.90
24904;DHT22;12960;50.322;11.124;2022-08-21T03:46:41;14.90;99.90
24904;DHT22;12960;50.322;11.124;2022-08-21T03:48:00;14.80;99.90
24904;DHT22;12960;50.322;11.124;2022-08-21T03:49:04;14.90;99.90
24904;DHT22;12960;50.322;11.124;2022-08-21T03:50:05;14.80;99.90
24904;DHT22;12960;50.322;11.124;2022-08-21T03:51:07;14.80;99.90
24904;DHT22;12960;50.322;11.124;2022-08-21T03:52:08;14.90;99.90
24904;DHT22;12960;50.322;11.124;2022-08-21T03:53:13;14.80;99.90
24904;DHT22;12960;50.322;11.124;2022-08-21T03:54:14;14.80;99.90
24904;DHT22;12960;50.322;11.124;2022-08-21T03:55:18;14.80;99.90
24904;DHT22;12960;50.322;11.124;2022-08-21T03:56:19;14.70;99.90
24904;DHT22;12960;50.322;11.124;2022-08-21T03:57:20;14.70;99.90
24904;DHT22;12960;50.322;11.124;2022-08-21T03:58:24;14.70;99.90
24904;DHT22;12960;50.322;11.124;2022-08-21T03:59:26;14.70;99.90
24904;DHT22;12960;50.322;11.124;2022-08-21T04:00:27;14.80;99.90
24904;DHT22;12960;50.322;11.124;2022-08-21T04:01:28;14.80;99.90
24904;DHT22;12960;50.322;11.124;2022-08-21T04:02:29;14.80;99.90
24904;DHT22;12960;50.322;11.124;2022-08-21T04:03:31;14.80;99.90
24904;DHT22;12960;50.322;11.124;2022-08-21T04:04:37;14.80;99.90
24904;DHT22;12960;50.322;11.124;2022-08-21T04:05:39;14.80;99.90
24904;DHT22;12960;50.322;11.124;2022-08-21T04:06:40;14.80;99.90
24904;DHT22;12960;50.322;11.124;2022-08-21T04:07:41;14.80;99.90
24904;DHT22;12960;50.322;11.124;2022-08-21T04:08:43;14.80;99.90
24904;DHT22;12960;50.322;11.124;2022-08-21T04:09:44;14.80;99.90
24904;DHT22;12960;50.322;11.124;2022-08-21T04:10:48;14.70;99.90
24904;DHT22;12960;50.322;11.124;2022-08-21T04:11:50;14.80;99.90
24904;DHT22;12960;50.322;11.124;2022-08-21T04:12:52;14.80;99.90
24904;DHT22;12960;50.322;11.124;2022-08-21T04:13:53;14.80;99.90
24904;DHT22;12960;50.322;11.124;2022-08-21T04:14:54;14.70;99.90
24904;DHT22;12960;50.322;11.124;2022-08-21T04:15:56;14.70;99.90
24904;DHT22;12960;50.322;11.124;2022-08-21T04:16:59;14.70;99.90
24904;DHT22;12960;50.322;11.124;2022-08-21T04:18:00;14.70;99.90
24904;DHT22;12960;50.322;11.124;2022-08-21T04:19:01;14.70;99.90
24904;DHT22;12960;50.322;11.124;2022-08-21T04:20:03;14.70;99.90
24904;DHT22;12960;50.322;11.124;2022-08-21T04:21:05;14.60;99.90
24904;DHT22;12960;50.322;11.124;2022-08-21T04:22:06;14.60;99.90
24904;DHT22;12960;50.322;11.124;2022-08-21T04:23:07;14.60;99.90
24904;DHT22;12960;50.322;11.124;2022-08-21T04:24:09;14.60;99.90
24904;DHT22;12960;50.322;11.124;2022-08-21T04:25:15;14.60;99.90
24904;DHT22;12960;50.322;11.124;2022-08-21T04:26:19;14.60;99.90
24904;DHT22;12960;50.322;11.124;2022-08-21T04:27:20;14.60;99.90
24904;DHT22;12960;50.322;11.124;2022-08-21T04:28:22;14.60;99.90
24904;DHT22;12960;50.322;11.124;2022-08-21T04:29:24;14.60;99.90
24904;DHT22;12960;50.322;11.124;2022-08-21T04:30:25;14.60;99.90
24904;DHT22;12960;50.322;11.124;2022-08-21T04:31:27;14.60;99.90
24904;DHT22;12960;50.322;11.124;2022-08-21T04:32:32;14.60;99.90
24904;DHT22;12960;50.322;11.124;2022-08-21T04:33:33;14.50;99.90
24904;DHT22;12960;50.322;11.124;2022-08-21T04:34:34;14.50;99.90
24904;DHT22;12960;50.322;11.124;2022-08-21T04:35:38;14.60;99.90
24904;DHT22;12960;50.322;11.124;2022-08-21T04:36:40;14.60;99.90
24904;DHT22;12960;50.322;11.124;2022-08-21T04:37:41;14.60;99.90
24904;DHT22;12960;50.322;11.124;2022-08-21T04:38:42;14.60;99.90
24904;DHT22;12960;50.322;11.124;2022-08-21T04:39:46;14.70;99.90
24904;DHT22;12960;50.322;11.124;2022-08-21T04:40:48;14.60;99.90
24904;DHT22;12960;50.322;11.124;2022-08-21T04:41:49;14.60;99.90
24904;DHT22;12960;50.322;11.124;2022-08-21T04:42:53;14.60;99.90
24904;DHT22;12960;50.322;11.124;2022-08-21T04:43:54;14.60;99.90
24904;DHT22;12960;50.322;11.124;2022-08-21T04:44:58;14.60;99.90
24904;DHT22;12960;50.322;11.124;2022-08-21T04:45:59;14.60;99.90
24904;DHT22;12960;50.322;11.124;2022-08-21T04:47:01;14.60;99.90
24904;DHT22;12960;50.322;11.124;2022-08-21T04:48:04;14.60;99.90
24904;DHT22;12960;50.322;11.124;2022-08-21T04:49:05;14.60;99.90
24904;DHT22;12960;50.322;11.124;2022-08-21T04:50:07;14.60;99.90
24904;DHT22;12960;50.322;11.124;2022-08-21T04:51:17;14.70;99.90
24904;DHT22;12960;50.322;11.124;2022-08-21T04:52:22;14.60;99.90
24904;DHT22;12960;50.322;11.124;2022-08-21T04:53:31;14.70;99.90
24904;DHT22;12960;50.322;11.124;2022-08-21T04:54:34;14.60;99.90
24904;DHT22;12960;50.322;11.124;2022-08-21T04:55:35;14.60;99.90
24904;DHT22;12960;50.322;11.124;2022-08-21T04:56:48;14.60;99.90
24904;DHT22;12960;50.322;11.124;2022-08-21T04:57:50;14.60;99.90
24904;DHT22;12960;50.322;11.124;2022-08-21T04:59:02;14.60;99.90
24904;DHT22;12960;50.322;11.124;2022-08-21T05:00:05;14.60;99.90
24904;DHT22;12960;50.322;11.124;2022-08-21T05:01:11;14.50;99.90
24904;DHT22;12960;50.322;11.124;2022-08-21T05:02:13;14.40;99.90
24904;DHT22;12960;50.322;11.124;2022-08-21T05:03:17;14.50;99.90
24904;DHT22;12960;50.322;11.124;2022-08-21T05:04:22;14.40;99.90
24904;DHT22;12960;50.322;11.124;2022-08-21T05:05:25;14.40;99.90
24904;DHT22;12960;50.322;11.124;2022-08-21T05:06:30;14.30;99.90
24904;DHT22;12960;50.322;11.124;2022-08-21T05:07:34;14.40;99.90
24904;DHT22;12960;50.322;11.124;2022-08-21T05:08:39;14.40;99.90
24904;DHT22;12960;50.322;11.124;2022-08-21T05:09:44;14.30;99.90
24904;DHT22;12960;50.322;11.124;2022-08-21T05:10:46;14.40;99.90
24904;DHT22;12960;50.322;11.124;2022-08-21T05:11:50;14.40;99.90
24904;DHT22;12960;50.322;11.124;2022-08-21T05:12:52;14.30;99.90
24904;DHT22;12960;50.322;11.124;2022-08-21T05:13:53;14.30;99.90
24904;DHT22;12960;50.322;11.124;2022-08-21T05:14:54;14.40;99.90
24904;DHT22;12960;50.322;11.124;2022-08-21T05:15:55;14.30;99.90
24904;DHT22;12960;50.322;11.124;2022-08-21T05:16:57;14.30;99.90
24904;DHT22;12960;50.322;11.124;2022-08-21T05:18:00;14.20;99.90
24904;DHT22;12960;50.322;11.124;2022-08-21T05:19:01;14.20;99.90
24904;DHT22;12960;50.322;11.124;2022-08-21T05:20:03;14.20;99.90
24904;DHT22;12960;50.322;11.124;2022-08-21T05:21:04;14.20;99.90
24904;DHT22;12960;50.322;11.124;2022-08-21T05:22:05;14.30;99.90
24904;DHT22;12960;50.322;11.124;2022-08-21T05:23:11;14.30;99.90
24904;DHT22;12960;50.322;11.124;2022-08-21T05:24:13;14.30;99.90
24904;DHT22;12960;50.322;11.124;2022-08-21T05:25:14;14.30;99.90
24904;DHT22;12960;50.322;11.124;2022-08-21T05:26:15;14.30;99.90
24904;DHT22;12960;50.322;11.124;2022-08-21T05:27:16;14.40;99.90
24904;DHT22;12960;50.322;11.124;2022-08-21T05:28:17;14.40;99.90
24904;DHT22;12960;50.322;11.124;2022-08-21T05:29:18;14.40;99.90
24904;DHT22;12960;50.322;11.124;2022-08-21T05:30:20;14.40;99.90
24904;DHT22;12960;50.322;11.124;2022-08-21T05:31:21;14.40;99.90
24904;DHT22;12960;50.322;11.124;2022-08-21T05:32:23;14.50;99.90
24904;DHT22;12960;50.322;11.124;2022-08-21T05:33:24;14.50;99.90
24904;DHT22;12960;50.322;11.124;2022-08-21T05:34:25;14.50;99.90
24904;DHT22;12960;50.322;11.124;2022-08-21T05:35:28;14.50;99.90
24904;DHT22;12960;50.322;11.124;2022-08-21T05:36:32;14.50;99.90
24904;DHT22;12960;50.322;11.124;2022-08-21T05:37:33;14.50;99.90
24904;DHT22;12960;50.322;11.124;2022-08-21T05:38:34;14.60;99.90
24904;DHT22;12960;50.322;11.124;2022-08-21T05:39:35;14.60;99.90
24904;DHT22;12960;50.322;11.124;2022-08-21T05:40:36;14.50;99.90
24904;DHT22;12960;50.322;11.124;2022-08-21T05:41:37;14.60;99.90
24904;DHT22;12960;50.322;11.124;2022-08-21T05:42:39;14.60;99.90
24904;DHT22;12960;50.322;11.124;2022-08-21T05:43:43;14.60;99.90
24904;DHT22;12960;50.322;11.124;2022-08-21T05:44:46;14.50;99.90
24904;DHT22;12960;50.322;11.124;2022-08-21T05:45:47;14.50;99.90
24904;DHT22;12960;50.322;11.124;2022-08-21T05:46:49;14.50;99.90
24904;DHT22;12960;50.322;11.124;2022-08-21T05:47:50;14.50;99.90
24904;DHT22;12960;50.322;11.124;2022-08-21T05:48:51;14.60;99.90
24904;DHT22;12960;50.322;11.124;2022-08-21T05:49:52;14.60;99.90
24904;DHT22;12960;50.322;11.124;2022-08-21T05:50:53;14.50;99.90
24904;DHT22;12960;50.322;11.124;2022-08-21T05:52:04;14.60;99.90
24904;DHT22;12960;50.322;11.124;2022-08-21T05:53:05;14.80;99.90
24904;DHT22;12960;50.322;11.124;2022-08-21T05:54:06;14.80;99.90
24904;DHT22;12960;50.322;11.124;2022-08-21T05:55:07;14.80;99.90
24904;DHT22;12960;50.322;11.124;2022-08-21T05:56:09;14.80;99.90
24904;DHT22;12960;50.322;11.124;2022-08-21T05:57:11;14.80;99.90
24904;DHT22;12960;50.322;11.124;2022-08-21T05:58:19;14.80;99.90
24904;DHT22;12960;50.322;11.124;2022-08-21T05:59:21;14.90;99.90
24904;DHT22;12960;50.322;11.124;2022-08-21T06:00:22;14.90;99.90
24904;DHT22;12960;50.322;11.124;2022-08-21T06:01:24;14.90;99.90
24904;DHT22;12960;50.322;11.124;2022-08-21T06:02:25;14.90;99.90
24904;DHT22;12960;50.322;11.124;2022-08-21T06:03:29;15.00;99.90
24904;DHT22;12960;50.322;11.124;2022-08-21T06:04:40;15.00;99.90
24904;DHT22;12960;50.322;11.124;2022-08-21T06:05:41;14.90;99.90
24904;DHT22;12960;50.322;11.124;2022-08-21T06:06:42;14.80;99.90
24904;DHT22;12960;50.322;11.124;2022-08-21T06:07:43;14.90;99.90
24904;DHT22;12960;50.322;11.124;2022-08-21T06:08:45;14.80;99.90
24904;DHT22;12960;50.322;11.124;2022-08-21T06:09:48;14.90;99.90
24904;DHT22;12960;50.322;11.124;2022-08-21T06:10:51;14.90;99.90
24904;DHT22;12960;50.322;11.124;2022-08-21T06:11:53;15.00;99.90
24904;DHT22;12960;50.322;11.124;2022-08-21T06:12:54;15.00;99.90
24904;DHT22;12960;50.322;11.124;2022-08-21T06:13:56;15.10;99.90
24904;DHT22;12960;50.322;11.124;2022-08-21T06:14:57;15.20;99.90
24904;DHT22;12960;50.322;11.124;2022-08-21T06:16:13;15.30;99.90
24904;DHT22;12960;50.322;11.124;2022-08-21T06:17:14;15.40;99.90
24904;DHT22;12960;50.322;11.124;2022-08-21T06:18:16;15.40;99.90
24904;DHT22;12960;50.322;11.124;2022-08-21T06:19:18;15.40;99.90
24904;DHT22;12960;50.322;11.124;2022-08-21T06:20:19;15.50;99.90
24904;DHT22;12960;50.322;11.124;2022-08-21T06:21:20;15.50;99.90
24904;DHT22;12960;50.322;11.124;2022-08-21T06:22:21;15.50;99.90
24904;DHT22;12960;50.322;11.124;2022-08-21T06:23:37;15.50;99.90
24904;DHT22;12960;50.322;11.124;2022-08-21T06:24:38;15.60;99.90
24904;DHT22;12960;50.322;11.124;2022-08-21T06:25:48;15.70;99.90
24904;DHT22;12960;50.322;11.124;2022-08-21T06:26:49;15.70;99.90
24904;DHT22;12960;50.322;11.124;2022-08-21T06:27:50;15.80;99.90
24904;DHT22;12960;50.322;11.124;2022-08-21T06:28:51;15.90;99.90
24904;DHT22;12960;50.322;11.124;2022-08-21T06:29:52;16.00;99.90
24904;DHT22;12960;50.322;11.124;2022-08-21T06:30:54;16.10;99.90